Time;durP1;ratioP1;P1;durP2;ratioP2;P2;SDS_P1;SDS_P2;PMS_P1;PMS_P2;Temp;Humidity;BMP_temperature;BMP_pressure;BME280_temperature;BME280_humidity;BME280_pressure;Samples;Min_cycle;Max_cycle;Signal;HPM_P1;HPM_P2
2022/04/25 00:02:17;;;;;;;5.60;2.20;;;;;;;11.28;76.61;96860.98;110183;1247;69243;-70
2022/04/25 00:04:47;;;;;;;5.70;2.70;;;;;;;11.24;76.57;96857.65;110092;1248;68447;-69
2022/04/25 00:07:17;;;;;;;5.80;2.20;;;;;;;11.19;77.07;96847.27;110127;1245;60172;-66
2022/04/25 00:09:46;;;;;;;4.60;1.80;;;;;;;11.14;78.11;96838.91;110122;1248;59699;-71
2022/04/25 00:12:16;;;;;;;5.30;2.50;;;;;;;11.08;80.38;96837.40;110084;1247;71435;-69
2022/04/25 00:14:47;;;;;;;3.80;2.10;;;;;;;11.02;81.24;96829.73;109879;1247;68739;-69
2022/04/25 00:17:16;;;;;;;8.30;3.60;;;;;;;10.98;80.00;96817.29;110153;1246;69309;-69
2022/04/25 00:19:46;;;;;;;8.20;3.10;;;;;;;10.91;85.00;96804.92;110144;1247;59700;-70
2022/04/25 00:22:15;;;;;;;6.50;2.80;;;;;;;10.88;82.46;96790.78;110155;1247;59749;-69
2022/04/25 00:24:48;;;;;;;;;;;;;;;10.84;81.38;96785.36;110150;1247;71347;-69
2022/04/25 00:27:18;;;;;;;8.20;2.60;;;;;;;10.80;82.33;96785.34;110060;1248;69417;-67
2022/04/25 00:29:55;;;;;;;5.50;1.90;;;;;;;10.74;82.52;96784.42;110084;1247;68642;-68
2022/04/25 00:32:24;;;;;;;6.60;2.30;;;;;;;10.71;82.40;96778.56;110070;1246;59759;-68
2022/04/25 00:34:54;;;;;;;4.30;2.70;;;;;;;10.67;82.36;96770.02;110108;1247;59612;-68
2022/04/25 00:37:24;;;;;;;7.90;3.00;;;;;;;10.60;84.22;96754.09;110084;1247;71517;-68
2022/04/25 00:39:54;;;;;;;8.00;2.60;;;;;;;10.50;86.26;96743.42;110093;1245;69225;-68
2022/04/25 00:42:25;;;;;;;6.50;2.90;;;;;;;10.46;84.41;96741.27;110048;1247;69381;-69
2022/04/25 00:44:59;;;;;;;6.90;2.90;;;;;;;10.42;84.39;96740.58;110057;1247;59711;-69
2022/04/25 00:47:29;;;;;;;9.60;3.30;;;;;;;10.40;84.39;96730.05;110078;1247;59718;-68
2022/04/25 00:49:59;;;;;;;8.30;3.40;;;;;;;10.36;85.98;96729.01;110143;1247;70500;-69
2022/04/25 00:52:29;;;;;;;6.40;2.90;;;;;;;10.33;88.00;96744.10;110140;1247;67900;-68
2022/04/25 00:55:02;;;;;;;6.80;2.70;;;;;;;10.32;88.25;96757.60;110130;1245;67616;-67
2022/04/25 00:57:32;;;;;;;11.30;3.50;;;;;;;10.31;90.74;96764.14;110086;1244;59744;-68
2022/04/25 01:00:07;;;;;;;10.50;3.30;;;;;;;10.31;91.10;96773.58;110101;1247;59666;-68
2022/04/25 01:02:37;;;;;;;9.00;4.10;;;;;;;10.33;87.23;96764.10;110136;1247;70796;-70
2022/04/25 01:05:09;;;;;;;8.30;2.90;;;;;;;10.31;86.51;96760.44;110184;1245;69351;-67
2022/04/25 01:07:39;;;;;;;9.90;3.00;;;;;;;10.29;86.31;96711.19;110350;1244;69234;-67
2022/04/25 01:10:10;;;;;;;9.00;3.40;;;;;;;10.27;87.29;96658.40;110262;1244;59737;-69
2022/04/25 01:12:41;;;;;;;7.10;3.00;;;;;;;10.17;87.52;96645.73;110308;1245;59748;-70
2022/04/25 01:15:12;;;;;;;7.10;3.90;;;;;;;10.11;89.12;96662.14;110181;1247;71498;-68
2022/04/25 01:17:42;;;;;;;11.30;3.20;;;;;;;10.04;89.43;96675.71;110196;1245;68646;-69
2022/04/25 01:20:12;;;;;;;7.20;3.40;;;;;;;10.01;89.16;96676.75;110471;1244;69367;-68
2022/04/25 01:22:57;;;;;;;8.70;3.40;;;;;;;9.97;89.47;96692.52;110107;1247;59740;-68
2022/04/25 01:28:15;;;;;;;7.70;2.60;;;;;;;9.94;90.28;96702.70;110095;1247;70571;-66
2022/04/25 01:30:45;;;;;;;7.30;2.80;;;;;;;9.93;91.22;96696.16;110188;1247;68371;-66
2022/04/25 01:33:15;;;;;;;9.70;3.50;;;;;;;9.93;91.22;96687.93;110361;1244;68682;-67
2022/04/25 01:35:45;;;;;;;;;;;;;;;9.97;89.31;96641.21;110484;1244;59671;-67
2022/04/25 01:38:15;;;;;;;9.20;3.60;;;;;;;9.95;89.69;96611.69;110446;1244;59678;-67
2022/04/25 01:40:45;;;;;;;5.90;3.30;;;;;;;9.93;89.88;96591.86;110122;1244;70932;-67
2022/04/25 01:43:15;;;;;;;6.30;3.10;;;;;;;9.94;89.15;96592.31;110197;1244;69504;-68
2022/04/25 01:45:45;;;;;;;6.80;3.00;;;;;;;9.94;89.27;96591.96;110058;1247;68502;-67
2022/04/25 01:48:14;;;;;;;8.40;3.50;;;;;;;9.91;89.84;96618.67;110120;1247;59697;-68
2022/04/25 01:50:45;;;;;;;9.80;3.50;;;;;;;9.90;90.47;96610.25;110154;1247;59625;-67
2022/04/25 01:53:16;;;;;;;9.80;2.90;;;;;;;9.90;89.72;96606.79;110138;1247;70779;-67
2022/04/25 01:55:46;;;;;;;6.30;2.80;;;;;;;9.91;89.91;96599.73;110109;1245;68620;-66
2022/04/25 01:58:16;;;;;;;7.40;2.60;;;;;;;9.93;88.58;96601.33;110149;1244;68605;-67
2022/04/25 02:00:46;;;;;;;14.00;3.80;;;;;;;9.92;89.01;96593.02;110297;1244;59750;-68
2022/04/25 02:03:16;;;;;;;7.30;2.90;;;;;;;9.93;89.03;96595.50;110153;1247;59730;-67
2022/04/25 02:05:46;;;;;;;7.50;3.00;;;;;;;9.94;88.93;96588.81;110169;1245;71551;-67
2022/04/25 02:08:17;;;;;;;;;;;;;;;9.93;88.80;96591.17;110119;1244;68623;-67
2022/04/25 02:11:19;;;;;;;11.00;3.10;;;;;;;9.92;88.75;96581.38;110162;1247;68657;-69
2022/04/25 02:13:40;;;;;;;10.00;3.60;;;;;;;9.92;88.39;96581.84;110132;1247;59668;-69
2022/04/25 02:16:12;;;;;;;7.40;3.90;;;;;;;9.89;88.76;96580.38;110074;1247;59702;-67
2022/04/25 02:18:42;;;;;;;9.20;3.00;;;;;;;9.89;88.72;96572.39;110127;1247;69753;-65
2022/04/25 02:21:12;;;;;;;;;;;;;;;9.90;88.25;96576.31;110081;1247;69210;-67
2022/04/25 02:23:42;;;;;;;5.50;2.40;;;;;;;9.92;88.13;96575.30;110433;1244;69415;-68
2022/04/25 02:26:13;;;;;;;6.20;2.70;;;;;;;9.89;88.21;96563.11;110462;1244;59735;-66
2022/04/25 02:28:43;;;;;;;9.30;2.70;;;;;;;9.90;87.99;96549.50;110485;1244;59667;-68
2022/04/25 02:31:14;;;;;;;8.40;3.80;;;;;;;9.90;87.86;96549.02;110409;1244;69954;-68
2022/04/25 02:33:44;;;;;;;12.10;4.10;;;;;;;9.87;89.07;96542.30;110160;1245;67882;-67
2022/04/25 02:36:14;;;;;;;10.30;3.30;;;;;;;9.83;90.29;96536.55;110477;1244;69259;-65
2022/04/25 02:38:45;;;;;;;9.10;3.20;;;;;;;9.80;91.35;96535.55;110437;1245;60118;-68
2022/04/25 02:41:16;;;;;;;8.50;3.30;;;;;;;9.77;91.00;96526.55;110413;1244;59750;-66
2022/04/25 02:43:47;;;;;;;9.70;3.40;;;;;;;9.76;91.07;96515.95;110444;1244;71518;-68
2022/04/25 02:46:18;;;;;;;7.20;3.20;;;;;;;9.72;90.76;96518.45;110452;1244;68615;-71
2022/04/25 02:48:48;;;;;;;10.00;2.90;;;;;;;9.68;91.21;96513.04;110098;1247;69494;-67
2022/04/25 02:51:18;;;;;;;;;;;;;;;9.64;91.09;96510.03;110058;1247;59684;-68
2022/04/25 02:53:48;;;;;;;9.60;3.70;;;;;;;9.59;90.95;96502.48;110307;1244;59662;-67
2022/04/25 02:56:19;;;;;;;6.60;2.80;;;;;;;9.55;91.03;96500.77;110125;1247;71569;-69
2022/04/25 02:58:49;;;;;;;7.30;3.00;;;;;;;9.52;90.84;96499.75;110283;1245;68823;-70
2022/04/25 03:01:19;;;;;;;8.30;3.60;;;;;;;9.49;90.11;96499.67;110408;1244;69314;-68
2022/04/25 03:03:50;;;;;;;8.80;2.80;;;;;;;9.46;89.27;96502.01;110134;1247;59704;-67
2022/04/25 03:06:21;;;;;;;12.00;3.40;;;;;;;9.42;89.97;96502.15;110171;1247;59670;-69
2022/04/25 03:08:53;;;;;;;6.10;3.10;;;;;;;9.38;90.56;96503.36;110091;1247;71568;-67
2022/04/25 03:11:25;;;;;;;5.90;2.70;;;;;;;9.33;90.57;96510.02;110089;1247;68739;-69
2022/04/25 03:13:56;;;;;;;9.30;3.20;;;;;;;9.28;91.19;96503.98;110030;1247;69243;-68
2022/04/25 03:16:28;;;;;;;7.90;2.70;;;;;;;9.23;90.79;96508.95;110106;1247;60106;-70
2022/04/25 03:18:58;;;;;;;7.70;3.10;;;;;;;9.17;90.72;96511.33;110091;1247;59691;-69
2022/04/25 03:21:29;;;;;;;14.90;3.80;;;;;;;9.10;90.91;96518.20;110112;1247;70589;-69
2022/04/25 03:23:59;;;;;;;11.70;3.20;;;;;;;9.03;90.61;96517.36;110130;1247;69550;-69
2022/04/25 03:26:29;;;;;;;8.10;2.90;;;;;;;8.96;90.51;96520.53;109995;1250;69223;-69
2022/04/25 03:28:59;;;;;;;10.30;4.20;;;;;;;8.90;90.89;96516.83;110080;1247;59779;-67
2022/04/25 03:31:29;;;;;;;9.70;3.50;;;;;;;8.83;91.64;96522.06;110110;1247;59780;-68
2022/04/25 03:33:59;;;;;;;;;;;;;;;8.78;91.58;96527.58;110096;1247;71361;-67
2022/04/25 03:36:31;;;;;;;9.10;2.90;;;;;;;8.71;90.99;96522.89;110096;1247;69241;-69
2022/04/25 03:39:01;;;;;;;8.50;3.50;;;;;;;8.67;91.37;96523.68;110077;1247;69495;-67
2022/04/25 03:41:31;;;;;;;6.80;3.00;;;;;;;8.65;90.82;96527.17;110118;1247;59757;-68
2022/04/25 03:44:02;;;;;;;6.80;2.50;;;;;;;8.66;90.59;96527.10;110124;1247;60177;-67
2022/04/25 03:46:32;;;;;;;7.50;4.10;;;;;;;8.66;90.36;96532.08;110124;1247;71517;-67
2022/04/25 03:49:02;;;;;;;8.80;2.90;;;;;;;8.67;90.77;96536.02;110155;1247;68456;-65
2022/04/25 03:51:32;;;;;;;7.00;3.00;;;;;;;8.68;90.42;96534.05;110053;1247;69370;-68
2022/04/25 03:54:02;;;;;;;7.10;2.90;;;;;;;8.70;91.01;96533.95;110021;1248;59696;-68
2022/04/25 03:59:19;;;;;;;6.10;2.80;;;;;;;8.75;92.64;96539.73;109998;1248;70806;-68
2022/04/25 04:01:49;;;;;;;7.60;3.10;;;;;;;8.79;92.86;96545.40;109858;1250;68636;-68
2022/04/25 04:04:20;;;;;;;6.80;3.80;;;;;;;8.81;92.21;96550.88;109955;1247;68561;-68
2022/04/25 04:06:50;;;;;;;8.40;3.40;;;;;;;8.88;91.71;96551.61;110149;1247;59690;-69
2022/04/25 04:12:10;;;;;;;8.00;3.60;;;;;;;9.01;91.69;96550.92;110074;1248;71349;-67
2022/04/25 04:14:43;;;;;;;10.40;3.90;;;;;;;9.07;91.55;96551.10;110121;1247;69202;-70
2022/04/25 04:17:17;;;;;;;7.30;3.50;;;;;;;9.15;91.74;96551.69;109838;1247;67901;-68
2022/04/25 04:19:47;;;;;;;8.70;4.10;;;;;;;9.22;91.23;96542.89;109829;1248;60133;-70
2022/04/25 04:22:17;;;;;;;9.30;3.90;;;;;;;9.30;91.96;96544.03;109780;1248;59755;-68
2022/04/25 04:24:48;;;;;;;5.60;2.40;;;;;;;9.36;92.06;96549.84;109990;1248;70603;-69
2022/04/25 04:27:20;;;;;;;7.20;2.60;;;;;;;9.40;91.57;96552.27;110082;1247;69196;-69
2022/04/25 04:29:50;;;;;;;5.00;2.10;;;;;;;9.45;91.14;96556.56;109932;1247;69529;-69
2022/04/25 04:32:47;;;;;;;6.20;2.50;;;;;;;9.51;90.48;96549.27;111914;1240;59162;31
2022/04/25 04:38:06;;;;;;;11.20;4.90;;;;;;;9.72;90.51;96551.37;109765;1251;70734;-65
2022/04/25 04:40:36;;;;;;;12.10;5.30;;;;;;;9.80;89.68;96553.33;109580;1254;68604;-66
2022/04/25 04:43:05;;;;;;;6.80;4.30;;;;;;;9.83;89.15;96555.18;109726;1252;68395;-65
2022/04/25 04:45:35;;;;;;;6.60;3.50;;;;;;;9.88;90.35;96551.73;109734;1251;59688;-66
2022/04/25 04:48:05;;;;;;;9.10;3.60;;;;;;;9.96;90.60;96544.82;109704;1252;59748;-65
2022/04/25 04:50:35;;;;;;;;;;;;;;;10.03;90.15;96540.21;109758;1251;70801;-67
2022/04/25 04:53:04;;;;;;;8.10;3.20;;;;;;;10.18;90.42;96536.32;109691;1251;67965;-69
2022/04/25 04:55:36;;;;;;;7.40;3.30;;;;;;;10.46;89.81;96547.00;109666;1252;68619;-67
2022/04/25 04:58:05;;;;;;;9.60;4.00;;;;;;;10.79;88.69;96553.42;109776;1252;59701;-65
2022/04/25 05:00:34;;;;;;;6.00;2.90;;;;;;;10.95;86.83;96556.03;109737;1251;59701;-65
2022/04/25 05:03:04;;;;;;;9.40;3.40;;;;;;;11.28;86.07;96549.09;109650;1251;72191;-65
2022/04/25 05:05:34;;;;;;;10.20;3.50;;;;;;;11.54;84.58;96546.23;109732;1250;68661;-66
2022/04/25 05:08:04;;;;;;;8.90;2.80;;;;;;;11.75;83.74;96549.52;109646;1251;69264;-66
2022/04/25 05:10:33;;;;;;;8.20;3.30;;;;;;;11.98;83.33;96550.11;109742;1251;59754;-65
2022/04/25 05:13:03;;;;;;;7.60;2.90;;;;;;;12.13;83.66;96550.27;109606;1252;59765;-66
2022/04/25 05:15:32;;;;;;;7.10;3.30;;;;;;;12.26;82.48;96553.82;109714;1252;71649;-66
2022/04/25 05:18:02;;;;;;;9.20;3.50;;;;;;;12.25;80.18;96550.73;109750;1251;68602;-66
2022/04/25 05:20:34;;;;;;;9.90;2.90;;;;;;;12.19;79.31;96555.03;109675;1253;69734;-68
2022/04/25 05:23:05;;;;;;;7.90;2.70;;;;;;;12.14;80.14;96557.58;109677;1253;60062;-66
2022/04/25 05:25:38;;;;;;;8.70;3.00;;;;;;;11.88;81.76;96557.46;109764;1251;59726;-67
2022/04/25 05:28:07;;;;;;;14.10;3.60;;;;;;;11.90;81.69;96561.35;109706;1252;71297;-67
2022/04/25 05:30:36;;;;;;;5.70;2.20;;;;;;;12.04;81.35;96557.73;109700;1252;68577;-68
2022/04/25 05:33:06;;;;;;;8.80;2.30;;;;;;;12.35;81.18;96557.11;109773;1251;69489;-67
2022/04/25 05:35:37;;;;;;;8.30;2.70;;;;;;;12.81;81.17;96554.06;109776;1250;59779;-68
2022/04/25 05:38:06;;;;;;;6.50;1.90;;;;;;;13.20;80.09;96554.11;109765;1251;59630;-67
2022/04/25 05:40:36;;;;;;;9.30;3.40;;;;;;;13.60;77.90;96551.08;109619;1252;71807;-67
2022/04/25 05:43:06;;;;;;;5.90;2.30;;;;;;;13.78;74.16;96543.03;109847;1250;67937;-68
2022/04/25 05:45:36;;;;;;;8.00;2.50;;;;;;;14.01;73.32;96546.85;109772;1252;69830;-67
2022/04/25 05:53:41;;;;;;;12.20;2.40;;;;;;;14.84;70.85;96536.83;109705;1251;70729;-69
2022/04/25 05:56:11;;;;;;;6.80;1.70;;;;;;;15.20;69.91;96521.86;109745;1250;68593;-68
2022/04/25 05:58:40;;;;;;;7.60;2.20;;;;;;;15.58;69.08;96510.21;109810;1250;69519;-68
2022/04/25 06:01:09;;;;;;;8.20;2.20;;;;;;;15.99;68.54;96507.75;109774;1250;59776;-68
2022/04/25 06:03:38;;;;;;;6.40;2.00;;;;;;;16.31;66.08;96500.73;109870;1250;59812;-67
2022/04/25 06:06:08;;;;;;;8.60;2.20;;;;;;;16.63;64.80;96499.67;109894;1249;71694;-68
2022/04/25 06:08:37;;;;;;;9.20;3.00;;;;;;;16.88;63.90;96506.57;109761;1250;68674;-69
2022/04/25 06:11:06;;;;;;;8.30;2.20;;;;;;;17.04;62.02;96512.85;109746;1253;70220;-69
2022/04/25 06:13:35;;;;;;;9.60;2.50;;;;;;;17.28;63.58;96514.09;109792;1250;59758;-69
2022/04/25 06:16:05;;;;;;;7.00;1.80;;;;;;;17.49;63.40;96515.48;109775;1251;59710;-70
2022/04/25 06:18:34;;;;;;;8.80;2.60;;;;;;;17.71;61.71;96516.75;109822;1250;71359;-70
2022/04/25 06:21:03;;;;;;;10.60;2.00;;;;;;;17.90;60.87;96517.55;109820;1250;68805;-69
2022/04/25 06:23:33;;;;;;;9.30;2.00;;;;;;;18.07;59.80;96513.84;109629;1252;68747;-68
2022/04/25 06:26:02;;;;;;;9.10;2.40;;;;;;;18.35;59.90;96518.08;109664;1250;60171;-68
2022/04/25 06:28:31;;;;;;;9.40;2.30;;;;;;;18.07;57.58;96513.30;109756;1252;59761;-67
2022/04/25 06:31:00;;;;;;;8.60;2.50;;;;;;;18.28;58.73;96510.27;109790;1250;71814;-69
2022/04/25 06:33:30;;;;;;;9.10;2.10;;;;;;;18.41;57.57;96508.95;109811;1250;67965;-68
2022/04/25 06:35:59;;;;;;;7.00;2.00;;;;;;;18.46;56.89;96507.94;109669;1249;67849;-70
2022/04/25 06:38:29;;;;;;;11.30;2.50;;;;;;;18.33;55.92;96500.54;109828;1250;59732;-69
2022/04/25 06:40:58;;;;;;;14.80;2.50;;;;;;;18.09;55.85;96492.25;109656;1250;59723;-68
2022/04/25 06:43:27;;;;;;;7.20;2.00;;;;;;;17.99;56.29;96487.56;109822;1250;69764;-69
2022/04/25 06:45:59;;;;;;;7.30;2.30;;;;;;;18.13;56.71;96485.77;109672;1253;68806;-69
2022/04/25 06:48:28;;;;;;;9.30;2.10;;;;;;;18.26;56.27;96482.95;109705;1253;69261;-71
2022/04/25 06:50:57;;;;;;;7.70;1.90;;;;;;;18.12;55.69;96479.56;109954;1250;59726;-70
2022/04/25 06:53:26;;;;;;;9.30;2.20;;;;;;;18.28;55.52;96481.84;109794;1250;59747;-69
2022/04/25 06:55:56;;;;;;;7.10;2.10;;;;;;;18.50;55.26;96485.60;109634;1251;70799;-69
2022/04/25 06:58:26;;;;;;;10.60;2.40;;;;;;;18.65;54.44;96488.36;109842;1252;68248;-70
2022/04/25 07:00:55;;;;;;;10.80;2.20;;;;;;;18.77;53.65;96492.94;109770;1250;69246;-72
2022/04/25 07:03:31;;;;;;;6.40;2.00;;;;;;;18.74;52.92;96492.41;109769;1251;59713;-70
2022/04/25 07:06:00;;;;;;;6.00;1.90;;;;;;;18.85;52.92;96494.13;109893;1250;59694;-68
2022/04/25 07:08:29;;;;;;;6.60;2.00;;;;;;;19.10;53.24;96493.10;109982;1250;71675;-68
2022/04/25 07:10:59;;;;;;;6.10;2.30;;;;;;;19.35;52.52;96491.17;109742;1250;68085;-70
2022/04/25 07:13:28;;;;;;;8.60;2.00;;;;;;;19.53;51.52;96497.46;109946;1250;69424;-71
2022/04/25 07:16:03;;;;;;;9.10;2.30;;;;;;;19.47;50.64;96496.77;109906;1251;59687;-70
2022/04/25 07:18:31;;;;;;;6.40;2.00;;;;;;;19.39;50.67;96491.61;109938;1249;59742;-69
2022/04/25 07:28:48;;;;;;;7.20;1.80;;;;;;;19.74;51.20;96488.34;109903;1250;71005;-69
2022/04/25 07:29:25;;;;;;;6.80;1.80;;;;;;;20.05;49.61;96471.73;109825;1250;59766;-69
2022/04/25 07:31:54;;;;;;;7.90;1.90;;;;;;;20.27;49.61;96467.17;109825;1249;59694;-68
2022/04/25 07:34:23;;;;;;;8.60;1.80;;;;;;;20.11;48.39;96467.56;109725;1250;72220;-71
2022/04/25 07:36:53;;;;;;;7.90;1.60;;;;;;;19.89;48.69;96457.50;109768;1250;67604;-69
2022/04/25 07:39:22;;;;;;;4.40;1.40;;;;;;;19.84;49.43;96451.55;109780;1250;68693;-70
2022/04/25 07:41:51;;;;;;;7.40;1.80;;;;;;;20.04;47.85;96451.80;109823;1251;59676;-66
2022/04/25 07:44:20;;;;;;;7.80;1.80;;;;;;;19.73;48.26;96448.92;109888;1250;59742;-69
2022/04/25 07:46:55;;;;;;;9.20;2.40;;;;;;;19.60;48.03;96442.49;109897;1250;72074;-70
2022/04/25 07:49:24;;;;;;;7.40;1.90;;;;;;;19.44;48.56;96441.23;109922;1250;68071;-70
2022/04/25 07:51:55;;;;;;;9.50;2.30;;;;;;;19.44;48.52;96441.48;109954;1250;69423;-68
2022/04/25 07:54:24;;;;;;;7.30;2.00;;;;;;;19.49;48.50;96439.86;109846;1250;59694;-69
2022/04/25 07:56:55;;;;;;;7.00;2.00;;;;;;;19.72;48.20;96439.13;109866;1250;59718;-69
2022/04/25 07:59:24;;;;;;;7.70;2.60;;;;;;;19.82;47.88;96437.33;109752;1250;70865;-69
2022/04/25 08:01:53;;;;;;;5.50;2.00;;;;;;;20.01;48.31;96432.84;109623;1250;67960;-70
2022/04/25 08:04:23;;;;;;;6.70;1.70;;;;;;;19.86;47.13;96434.66;109850;1250;69264;-70
2022/04/25 08:06:52;;;;;;;10.40;2.20;;;;;;;19.64;48.07;96431.97;109866;1251;59760;-70
2022/04/25 08:09:21;;;;;;;10.00;2.40;;;;;;;19.26;49.06;96432.79;109630;1252;59746;-70
2022/04/25 08:17:56;;;;;;;8.30;2.00;;;;;;;19.30;49.03;96432.47;109838;1252;72173;-68
2022/04/25 08:20:14;;;;;;;6.10;1.70;;;;;;;19.68;48.83;96427.62;109820;1252;59695;-66
2022/04/25 08:22:42;;;;;;;6.30;1.90;;;;;;;20.10;48.80;96422.63;109729;1250;59789;-70
2022/04/25 08:25:12;;;;;;;7.10;1.90;;;;;;;20.29;47.61;96418.77;109926;1250;72161;-68
2022/04/25 08:27:42;;;;;;;6.90;1.90;;;;;;;20.38;47.96;96416.54;109945;1250;68157;-68
2022/04/25 08:30:14;;;;;;;8.50;1.70;;;;;;;20.90;47.30;96409.43;109768;1250;67748;-68
2022/04/25 08:32:44;;;;;;;5.20;1.90;;;;;;;21.54;45.20;96397.16;109835;1250;59690;-72
2022/04/25 08:35:14;;;;;;;7.80;1.70;;;;;;;21.95;44.57;96384.72;109800;1250;59729;-71
2022/04/25 08:37:43;;;;;;;6.40;1.80;;;;;;;22.36;43.42;96384.14;109993;1250;71359;-70
2022/04/25 08:40:12;;;;;;;4.70;1.60;;;;;;;22.66;43.53;96382.55;109978;1250;68712;-71
2022/04/25 08:42:41;;;;;;;6.80;1.60;;;;;;;23.09;43.18;96383.19;109820;1250;68700;-71
2022/04/25 08:45:14;;;;;;;7.40;1.70;;;;;;;23.37;41.25;96384.10;109928;1250;59673;-70
2022/04/25 08:47:47;;;;;;;4.70;1.40;;;;;;;23.75;41.84;96381.75;109793;1251;60012;-70
2022/04/25 08:50:18;;;;;;;7.10;1.90;;;;;;;24.00;40.13;96377.29;110035;1250;71510;-70
2022/04/25 08:52:48;;;;;;;7.60;1.80;;;;;;;24.12;39.60;96375.17;109747;1250;67783;-70
2022/04/25 08:55:18;;;;;;;7.40;1.90;;;;;;;23.81;39.52;96369.68;109960;1251;68769;-69
2022/04/25 08:57:49;;;;;;;11.60;2.50;;;;;;;23.79;40.78;96368.22;110003;1250;59711;-70
2022/04/25 09:00:18;;;;;;;7.40;1.90;;;;;;;23.79;39.26;96362.30;109977;1250;59665;-69
2022/04/25 09:02:49;;;;;;;7.30;2.20;;;;;;;23.35;40.44;96362.42;109931;1250;72262;-68
2022/04/25 09:05:19;;;;;;;8.80;2.30;;;;;;;23.07;40.97;96357.21;109608;1250;317550;-69
2022/04/25 09:07:48;;;;;;;9.10;2.50;;;;;;;22.64;40.81;96351.48;109969;1251;68773;-70
2022/04/25 09:10:20;;;;;;;9.30;2.10;;;;;;;21.94;41.26;96347.80;109763;1250;59778;-67
2022/04/25 09:12:51;;;;;;;5.80;2.20;;;;;;;21.36;43.10;96344.21;109798;1253;59696;-68
2022/04/25 09:15:24;;;;;;;7.70;2.20;;;;;;;21.07;43.89;96339.98;109712;1252;71668;-69
2022/04/25 09:17:55;;;;;;;6.80;2.20;;;;;;;20.80;46.05;96334.84;109549;1253;66899;-66
2022/04/25 09:20:26;;;;;;;5.30;2.10;;;;;;;20.67;46.54;96336.79;109704;1251;68627;-68
2022/04/25 09:22:57;;;;;;;4.20;1.80;;;;;;;20.59;46.61;96334.63;109663;1252;59698;-67
2022/04/25 09:25:26;;;;;;;9.40;2.10;;;;;;;20.18;46.74;96340.66;109883;1250;59679;-70
2022/04/25 09:28:20;;;;;;;6.50;2.30;;;;;;;19.88;47.62;96346.06;109902;1250;71971;-68
2022/04/25 09:31:01;;;;;;;6.80;2.20;;;;;;;19.64;47.90;96354.20;109775;1253;68423;-67
2022/04/25 09:33:31;;;;;;;;;;;;;;;19.41;48.29;96359.96;109731;1253;69253;-68
2022/04/25 09:36:00;;;;;;;6.20;2.50;;;;;;;19.23;48.59;96365.48;109900;1250;59719;-70
2022/04/25 09:38:33;;;;;;;7.20;2.50;;;;;;;19.04;49.73;96370.65;109671;1251;59706;-67
2022/04/25 09:41:05;;;;;;;8.80;2.80;;;;;;;18.84;50.85;96373.02;109824;1253;71679;-68
2022/04/25 09:43:41;;;;;;;7.80;2.90;;;;;;;18.57;51.87;96376.40;109812;1250;68591;-67
2022/04/25 09:46:17;;;;;;;10.80;3.00;;;;;;;18.39;52.20;96389.61;109771;1250;69448;-67
2022/04/25 09:49:04;;;;;;;10.00;3.50;;;;;;;18.17;52.91;96385.52;109528;1252;59740;-67
2022/04/25 09:51:33;;;;;;;8.60;2.60;;;;;;;18.02;53.41;96384.16;109714;1251;59761;-69
2022/04/25 09:54:03;;;;;;;8.00;2.60;;;;;;;17.97;53.39;96369.42;109933;1250;71674;-69
2022/04/25 09:56:34;;;;;;;6.80;2.90;;;;;;;18.05;54.18;96376.88;109950;1250;67859;-69
2022/04/25 09:59:07;;;;;;;7.20;2.20;;;;;;;18.05;43.72;96386.59;109737;1250;69423;-69
2022/04/25 10:01:39;;;;;;;6.00;1.80;;;;;;;18.00;43.32;96405.67;109712;1250;59710;-69
2022/04/25 10:04:37;;;;;;;5.00;1.70;;;;;;;18.04;41.49;96407.16;109829;1251;58877;-69
2022/04/25 10:07:06;;;;;;;6.90;1.90;;;;;;;17.97;44.68;96411.16;109913;1251;72048;-69
2022/04/25 10:09:36;;;;;;;6.60;2.30;;;;;;;17.94;46.81;96422.30;109975;1250;68658;-67
2022/04/25 10:12:06;;;;;;;8.20;2.70;;;;;;;17.86;48.55;96458.27;109894;1251;70243;-68
2022/04/25 10:14:36;;;;;;;;;;;;;;;17.47;51.21;96592.94;109677;1251;60047;-69
2022/04/25 10:17:06;;;;;;;2.40;0.80;;;;;;;15.42;50.09;96634.76;109777;1252;59782;-66
2022/04/25 10:19:38;;;;;;;2.20;0.90;;;;;;;12.89;58.85;96664.43;109930;1250;71352;-69
2022/04/25 10:22:09;;;;;;;5.40;1.50;;;;;;;11.61;67.39;96664.08;109762;1250;69200;-64
2022/04/25 10:24:39;;;;;;;5.20;1.20;;;;;;;10.04;78.85;96635.19;109617;1253;67716;-67
2022/04/25 10:27:13;;;;;;;3.40;1.30;;;;;;;9.25;82.45;96650.96;109751;1251;59721;-70
2022/04/25 10:29:50;;;;;;;2.90;1.20;;;;;;;9.08;82.47;96659.35;109733;1251;59699;-68
2022/04/25 10:32:23;;;;;;;3.20;1.20;;;;;;;8.95;84.03;96649.23;109633;1252;71584;-68
2022/04/25 10:34:59;;;;;;;2.90;1.30;;;;;;;8.85;85.20;96648.56;109903;1250;68724;-68
2022/04/25 10:37:37;;;;;;;3.30;1.60;;;;;;;8.84;84.80;96639.30;109781;1252;69345;-71
2022/04/25 10:40:09;;;;;;;4.30;1.70;;;;;;;8.91;84.10;96628.98;109632;1251;59777;-71
2022/04/25 10:46:07;;;;;;;3.90;1.20;;;;;;;8.91;84.99;96668.29;109330;1257;71456;-70
2022/04/25 10:49:04;;;;;;;4.40;1.40;;;;;;;8.87;85.51;96670.50;109040;1258;67790;-72
2022/04/25 10:51:39;;;;;;;2.40;1.20;;;;;;;8.82;86.00;96664.80;109210;1258;68522;-71
2022/04/25 10:54:12;;;;;;;1.60;1.10;;;;;;;8.84;85.78;96672.16;109073;1260;59790;-70
2022/04/25 10:57:04;;;;;;;4.50;1.60;;;;;;;8.83;85.93;96685.44;108959;1257;59794;-71
2022/04/25 10:59:37;;;;;;;2.10;1.30;;;;;;;8.97;83.49;96689.55;109336;1258;70546;-71
2022/04/25 11:02:25;;;;;;;1.70;1.20;;;;;;;8.92;84.43;96683.52;109305;1259;68524;-72
2022/04/25 11:05:10;;;;;;;2.70;1.40;;;;;;;8.85;85.36;96677.27;109216;1257;68757;-72
2022/04/25 11:07:42;;;;;;;4.10;1.40;;;;;;;8.80;86.30;96677.11;109311;1257;59845;-72
2022/04/25 11:10:41;;;;;;;2.80;1.50;;;;;;;8.82;86.03;96668.44;109371;1256;59690;-72
2022/04/25 11:13:13;;;;;;;3.40;1.40;;;;;;;8.86;85.77;96672.34;109346;1258;70391;-71
2022/04/25 11:15:50;;;;;;;1.90;1.40;;;;;;;8.89;85.27;96666.68;109295;1257;67713;-70
2022/04/25 11:18:35;;;;;;;2.40;1.20;;;;;;;8.89;86.46;96655.23;109335;1256;68641;-71
2022/04/25 11:21:17;;;;;;;3.10;1.50;;;;;;;8.90;86.71;96630.14;109529;1253;59722;-72
2022/04/25 11:23:51;;;;;;;1.50;1.20;;;;;;;8.93;86.45;96617.73;109646;1253;59670;-72
2022/04/25 11:26:25;;;;;;;3.40;1.30;;;;;;;9.01;85.14;96619.02;109419;1254;71257;-72
2022/04/25 11:29:08;;;;;;;3.20;1.40;;;;;;;9.08;85.20;96599.14;109494;1252;67907;-69
2022/04/25 11:31:39;;;;;;;2.70;1.10;;;;;;;9.20;84.75;96566.72;109582;1253;69427;-69
2022/04/25 11:34:11;;;;;;;2.20;1.30;;;;;;;9.32;84.35;96541.46;109411;1253;59766;-69
2022/04/25 11:36:44;;;;;;;2.10;1.20;;;;;;;9.41;84.47;96542.80;109576;1253;59734;-69
2022/04/25 11:42:06;;;;;;;3.50;1.40;;;;;;;9.68;82.30;96566.95;109546;1253;68083;-64
2022/04/25 11:44:38;;;;;;;3.10;1.50;;;;;;;9.81;83.25;96568.52;109322;1253;70423;-66
2022/04/25 11:47:07;;;;;;;2.50;1.50;;;;;;;9.92;83.85;96567.28;109707;1251;59841;-70
2022/04/25 11:49:42;;;;;;;1.90;1.30;;;;;;;10.06;83.86;96553.42;109650;1253;59625;-66
2022/04/25 11:52:20;;;;;;;3.00;1.40;;;;;;;10.19;83.07;96560.30;109740;1250;71712;-69
2022/04/25 11:54:50;;;;;;;2.70;1.60;;;;;;;10.34;83.03;96554.20;109769;1253;68564;-70
2022/04/25 11:57:20;;;;;;;2.40;1.70;;;;;;;10.45;82.03;96539.09;109654;1251;69308;-69
2022/04/25 12:00:08;;;;;;;2.10;1.20;;;;;;;10.60;81.66;96545.48;109609;1253;59747;-65
2022/04/25 12:02:40;;;;;;;2.10;1.30;;;;;;;10.73;81.08;96540.67;109841;1251;59646;-68
2022/04/25 12:05:10;;;;;;;3.20;1.50;;;;;;;10.86;80.54;96578.80;109665;1253;71575;-70
2022/04/25 12:16:19;;;;;;;3.10;1.60;;;;;;;11.24;78.84;96588.52;109490;1253;60217;-70
2022/04/25 12:18:51;;;;;;;2.40;1.80;;;;;;;11.37;79.71;96579.90;109742;1253;72462;-69
2022/04/25 12:21:21;;;;;;;3.20;1.60;;;;;;;11.51;79.11;96592.54;109733;1253;69193;-69
2022/04/25 12:23:53;;;;;;;;;;;;;;;11.65;78.28;96616.56;109563;1253;69476;-68
2022/04/25 12:26:29;;;;;;;3.00;1.60;;;;;;;11.68;77.48;96640.40;109712;1251;59692;-67
2022/04/25 12:29:01;;;;;;;3.00;1.60;;;;;;;11.63;78.05;96644.55;109573;1253;59653;-69
2022/04/25 12:31:38;;;;;;;2.60;1.40;;;;;;;11.73;78.76;96641.59;109710;1251;70650;-69
2022/04/25 12:34:09;;;;;;;1.90;1.10;;;;;;;11.82;78.02;96651.91;109794;1251;68763;-68